sensor_id;sensor_type;location;lat;lon;timestamp;pressure;altitude;pressure_sealevel;temperature;humidity
64368;BME280;50692;53.314;-6.300;2023-04-08T00:01:26;101835.63;;;9.39;74.98
64368;BME280;50692;53.314;-6.300;2023-04-08T00:04:11;101833.94;;;9.36;75.81
64368;BME280;50692;53.314;-6.300;2023-04-08T00:06:58;101833.88;;;9.38;75.76
64368;BME280;50692;53.314;-6.300;2023-04-08T00:09:44;101829.50;;;9.39;76.14
64368;BME280;50692;53.314;-6.300;2023-04-08T00:12:30;101826.03;;;9.36;76.56
64368;BME280;50692;53.314;-6.300;2023-04-08T00:15:16;101837.41;;;9.39;77.07
64368;BME280;50692;53.314;-6.300;2023-04-08T00:18:02;101837.34;;;9.40;77.05
64368;BME280;50692;53.314;-6.300;2023-04-08T00:20:48;101838.22;;;9.41;77.18
64368;BME280;50692;53.314;-6.300;2023-04-08T00:23:34;101841.69;;;9.43;77.17
64368;BME280;50692;53.314;-6.300;2023-04-08T00:26:20;101840.06;;;9.37;78.09
64368;BME280;50692;53.314;-6.300;2023-04-08T00:29:05;101832.94;;;9.41;77.72
64368;BME280;50692;53.314;-6.300;2023-04-08T00:31:51;101833.75;;;9.43;77.32
64368;BME280;50692;53.314;-6.300;2023-04-08T00:34:37;101839.13;;;9.40;77.07
64368;BME280;50692;53.314;-6.300;2023-04-08T00:37:23;101834.00;;;9.35;77.35
64368;BME280;50692;53.314;-6.300;2023-04-08T00:40:12;101823.47;;;9.33;77.25
64368;BME280;50692;53.314;-6.300;2023-04-08T00:42:58;101831.38;;;9.33;77.37
64368;BME280;50692;53.314;-6.300;2023-04-08T00:45:49;101834.84;;;9.35;77.24
64368;BME280;50692;53.314;-6.300;2023-04-08T00:48:35;101834.94;;;9.32;77.24
64368;BME280;50692;53.314;-6.300;2023-04-08T00:51:21;101833.41;;;9.25;77.49
64368;BME280;50692;53.314;-6.300;2023-04-08T00:54:07;101838.69;;;9.24;77.60
64368;BME280;50692;53.314;-6.300;2023-04-08T00:56:53;101825.72;;;9.18;78.10
64368;BME280;50692;53.314;-6.300;2023-04-08T00:59:40;101836.13;;;9.22;78.22
64368;BME280;50692;53.314;-6.300;2023-04-08T01:02:54;101834.25;;;9.26;78.51
64368;BME280;50692;53.314;-6.300;2023-04-08T01:05:58;101823.94;;;9.18;79.22
64368;BME280;50692;53.314;-6.300;2023-04-08T01:08:45;101817.81;;;9.18;78.68
64368;BME280;50692;53.314;-6.300;2023-04-08T01:11:37;101827.34;;;9.22;78.97
64368;BME280;50692;53.314;-6.300;2023-04-08T01:14:27;101813.31;;;9.20;79.46
64368;BME280;50692;53.314;-6.300;2023-04-08T01:17:14;101820.13;;;9.28;79.42
64368;BME280;50692;53.314;-6.300;2023-04-08T01:20:02;101827.88;;;9.33;79.75
64368;BME280;50692;53.314;-6.300;2023-04-08T01:22:57;101822.53;;;9.36;79.81
64368;BME280;50692;53.314;-6.300;2023-04-08T01:25:52;101821.56;;;9.39;80.49
64368;BME280;50692;53.314;-6.300;2023-04-08T01:28:39;101820.59;;;9.41;80.04
64368;BME280;50692;53.314;-6.300;2023-04-08T01:31:26;101812.78;;;9.38;79.93
64368;BME280;50692;53.314;-6.300;2023-04-08T01:34:13;101817.69;;;9.50;79.60
64368;BME280;50692;53.314;-6.300;2023-04-08T01:37:01;101823.75;;;9.52;79.32
64368;BME280;50692;53.314;-6.300;2023-04-08T01:39:48;101811.59;;;9.48;79.46
64368;BME280;50692;53.314;-6.300;2023-04-08T01:42:35;101824.00;;;9.45;79.97
64368;BME280;50692;53.314;-6.300;2023-04-08T01:45:22;101823.22;;;9.41;80.40
64368;BME280;50692;53.314;-6.300;2023-04-08T01:48:09;101817.00;;;9.44;80.31
64368;BME280;50692;53.314;-6.300;2023-04-08T01:50:56;101820.56;;;9.43;80.44
64368;BME280;50692;53.314;-6.300;2023-04-08T01:53:42;101818.88;;;9.40;80.57
64368;BME280;50692;53.314;-6.300;2023-04-08T01:56:32;101810.78;;;9.46;80.22
64368;BME280;50692;53.314;-6.300;2023-04-08T01:59:22;101798.63;;;9.41;79.76
64368;BME280;50692;53.314;-6.300;2023-04-08T02:02:09;101807.13;;;9.50;79.50
64368;BME280;50692;53.314;-6.300;2023-04-08T02:04:55;101809.72;;;9.52;79.36
64368;BME280;50692;53.314;-6.300;2023-04-08T02:07:41;101809.69;;;9.53;78.95
64368;BME280;50692;53.314;-6.300;2023-04-08T02:10:27;101815.84;;;9.52;78.73
64368;BME280;50692;53.314;-6.300;2023-04-08T02:13:13;101816.69;;;9.54;78.52
64368;BME280;50692;53.314;-6.300;2023-04-08T02:19:17;101819.50;;;9.48;78.31
64368;BME280;50692;53.314;-6.300;2023-04-08T02:22:09;101818.72;;;9.45;78.13
64368;BME280;50692;53.314;-6.300;2023-04-08T02:24:58;101815.47;;;9.36;78.07
64368;BME280;50692;53.314;-6.300;2023-04-08T02:27:44;101824.06;;;9.43;77.81
64368;BME280;50692;53.314;-6.300;2023-04-08T02:30:34;101827.63;;;9.42;77.98
64368;BME280;50692;53.314;-6.300;2023-04-08T02:33:22;101826.78;;;9.40;77.89
64368;BME280;50692;53.314;-6.300;2023-04-08T02:36:08;101826.88;;;9.37;78.17
64368;BME280;50692;53.314;-6.300;2023-04-08T02:38:55;101823.31;;;9.38;78.09
64368;BME280;50692;53.314;-6.300;2023-04-08T02:41:41;101822.47;;;9.37;78.18
64368;BME280;50692;53.314;-6.300;2023-04-08T02:44:27;101820.59;;;9.41;78.09
64368;BME280;50692;53.314;-6.300;2023-04-08T02:47:13;101817.09;;;9.41;78.47
64368;BME280;50692;53.314;-6.300;2023-04-08T02:49:58;101814.53;;;9.37;78.70
64368;BME280;50692;53.314;-6.300;2023-04-08T02:52:45;101807.41;;;9.41;78.67
64368;BME280;50692;53.314;-6.300;2023-04-08T02:55:30;101808.09;;;9.48;78.48
64368;BME280;50692;53.314;-6.300;2023-04-08T02:58:16;101812.31;;;9.53;79.31
64368;BME280;50692;53.314;-6.300;2023-04-08T03:01:03;101807.31;;;9.44;79.37
64368;BME280;50692;53.314;-6.300;2023-04-08T03:03:50;101809.78;;;9.49;79.78
64368;BME280;50692;53.314;-6.300;2023-04-08T03:06:35;101805.34;;;9.51;80.09
64368;BME280;50692;53.314;-6.300;2023-04-08T03:09:21;101812.25;;;9.55;79.71
64368;BME280;50692;53.314;-6.300;2023-04-08T03:12:07;101813.28;;;9.51;80.03
64368;BME280;50692;53.314;-6.300;2023-04-08T03:14:54;101815.84;;;9.52;80.25
64368;BME280;50692;53.314;-6.300;2023-04-08T03:17:39;101804.44;;;9.52;80.03
64368;BME280;50692;53.314;-6.300;2023-04-08T03:20:25;101814.91;;;9.55;79.84
64368;BME280;50692;53.314;-6.300;2023-04-08T03:23:11;101800.91;;;9.53;79.72
64368;BME280;50692;53.314;-6.300;2023-04-08T03:25:57;101809.72;;;9.52;79.53
64368;BME280;50692;53.314;-6.300;2023-04-08T03:28:43;101801.00;;;9.50;79.17
64368;BME280;50692;53.314;-6.300;2023-04-08T03:31:29;101789.69;;;9.45;78.63
64368;BME280;50692;53.314;-6.300;2023-04-08T03:34:15;101800.78;;;9.56;77.90
64368;BME280;50692;53.314;-6.300;2023-04-08T03:37:01;101805.09;;;9.58;77.50
64368;BME280;50692;53.314;-6.300;2023-04-08T03:39:46;101805.97;;;9.59;77.09
64368;BME280;50692;53.314;-6.300;2023-04-08T03:42:32;101805.16;;;9.57;76.63
64368;BME280;50692;53.314;-6.300;2023-04-08T03:45:19;101798.25;;;9.53;76.41
64368;BME280;50692;53.314;-6.300;2023-04-08T03:48:05;101794.19;;;9.41;76.62
64368;BME280;50692;53.314;-6.300;2023-04-08T03:50:51;101801.03;;;9.48;76.22
64368;BME280;50692;53.314;-6.300;2023-04-08T03:53:37;101788.75;;;9.47;76.08
64368;BME280;50692;53.314;-6.300;2023-04-08T03:56:23;101787.22;;;9.40;75.85
64368;BME280;50692;53.314;-6.300;2023-04-08T03:59:10;101782.03;;;9.37;76.20
64368;BME280;50692;53.314;-6.300;2023-04-08T04:01:55;101787.38;;;9.34;76.32
64368;BME280;50692;53.314;-6.300;2023-04-08T04:04:41;101776.22;;;9.26;77.09
64368;BME280;50692;53.314;-6.300;2023-04-08T04:07:27;101791.09;;;9.28;77.05
64368;BME280;50692;53.314;-6.300;2023-04-08T04:10:13;101797.22;;;9.29;77.19
64368;BME280;50692;53.314;-6.300;2023-04-08T04:12:59;101786.72;;;9.27;77.37
64368;BME280;50692;53.314;-6.300;2023-04-08T04:15:44;101788.47;;;9.28;77.23
64368;BME280;50692;53.314;-6.300;2023-04-08T04:18:30;101795.41;;;9.31;77.01
64368;BME280;50692;53.314;-6.300;2023-04-08T04:21:16;101791.97;;;9.29;77.02
64368;BME280;50692;53.314;-6.300;2023-04-08T04:24:02;101801.69;;;9.27;77.36
64368;BME280;50692;53.314;-6.300;2023-04-08T04:26:48;101795.53;;;9.26;77.24
64368;BME280;50692;53.314;-6.300;2023-04-08T04:29:34;101793.81;;;9.25;77.70
64368;BME280;50692;53.314;-6.300;2023-04-08T04:32:20;101806.25;;;9.22;77.82
64368;BME280;50692;53.314;-6.300;2023-04-08T04:35:06;101788.69;;;9.21;77.84
64368;BME280;50692;53.314;-6.300;2023-04-08T04:37:52;101794.94;;;9.17;77.97
64368;BME280;50692;53.314;-6.300;2023-04-08T04:40:38;101801.22;;;9.12;78.42
64368;BME280;50692;53.314;-6.300;2023-04-08T04:43:24;101769.31;;;8.92;79.26
64368;BME280;50692;53.314;-6.300;2023-04-08T04:46:10;101789.91;;;9.09;79.88
64368;BME280;50692;53.314;-6.300;2023-04-08T04:48:56;101788.97;;;9.11;79.70
64368;BME280;50692;53.314;-6.300;2023-04-08T04:51:41;101786.25;;;9.13;79.95
64368;BME280;50692;53.314;-6.300;2023-04-08T04:54:27;101787.16;;;9.13;79.90
64368;BME280;50692;53.314;-6.300;2023-04-08T04:57:13;101792.50;;;9.10;79.98
64368;BME280;50692;53.314;-6.300;2023-04-08T04:59:59;101798.69;;;9.09;80.17
64368;BME280;50692;53.314;-6.300;2023-04-08T05:02:45;101798.78;;;9.06;80.26
64368;BME280;50692;53.314;-6.300;2023-04-08T05:05:30;101801.50;;;9.03;80.13
64368;BME280;50692;53.314;-6.300;2023-04-08T05:08:17;101789.50;;;8.93;80.17
64368;BME280;50692;53.314;-6.300;2023-04-08T05:11:02;101803.38;;;9.00;80.28
64368;BME280;50692;53.314;-6.300;2023-04-08T05:13:48;101794.72;;;8.95;80.36
64368;BME280;50692;53.314;-6.300;2023-04-08T05:16:34;101793.00;;;8.94;80.77
64368;BME280;50692;53.314;-6.300;2023-04-08T05:19:20;101797.41;;;8.93;81.17
64368;BME280;50692;53.314;-6.300;2023-04-08T05:22:05;101794.03;;;8.88;81.00
64368;BME280;50692;53.314;-6.300;2023-04-08T05:24:51;101804.63;;;8.86;81.17
64368;BME280;50692;53.314;-6.300;2023-04-08T05:27:37;101811.69;;;8.86;81.48
64368;BME280;50692;53.314;-6.300;2023-04-08T05:30:24;101807.31;;;8.85;81.36
64368;BME280;50692;53.314;-6.300;2023-04-08T05:33:10;101809.06;;;8.84;81.37
64368;BME280;50692;53.314;-6.300;2023-04-08T05:35:56;101806.56;;;8.80;81.35
64368;BME280;50692;53.314;-6.300;2023-04-08T05:38:42;101809.97;;;8.83;81.49
64368;BME280;50692;53.314;-6.300;2023-04-08T05:41:29;101808.25;;;8.82;81.48
64368;BME280;50692;53.314;-6.300;2023-04-08T05:44:14;101810.91;;;8.81;81.86
64368;BME280;50692;53.314;-6.300;2023-04-08T05:47:00;101807.50;;;8.77;81.96
64368;BME280;50692;53.314;-6.300;2023-04-08T05:49:46;101803.31;;;8.70;82.53
64368;BME280;50692;53.314;-6.300;2023-04-08T05:52:32;101821.75;;;8.72;82.70
64368;BME280;50692;53.314;-6.300;2023-04-08T05:55:18;101821.66;;;8.75;82.90
64368;BME280;50692;53.314;-6.300;2023-04-08T05:58:04;101821.66;;;8.75;83.42
64368;BME280;50692;53.314;-6.300;2023-04-08T06:00:50;101829.50;;;8.76;83.40
64368;BME280;50692;53.314;-6.300;2023-04-08T06:03:35;101830.28;;;8.81;83.71
64368;BME280;50692;53.314;-6.300;2023-04-08T06:06:22;101823.25;;;8.80;83.95
64368;BME280;50692;53.314;-6.300;2023-04-08T06:09:08;101833.56;;;8.88;83.93
64368;BME280;50692;53.314;-6.300;2023-04-08T06:11:57;101836.13;;;8.91;83.98
64368;BME280;50692;53.314;-6.300;2023-04-08T06:14:42;101836.13;;;8.91;84.55
64368;BME280;50692;53.314;-6.300;2023-04-08T06:17:28;101835.13;;;8.95;84.55
64368;BME280;50692;53.314;-6.300;2023-04-08T06:20:14;101830.63;;;8.99;84.58
64368;BME280;50692;53.314;-6.300;2023-04-08T06:23:00;101831.41;;;9.02;84.38
64368;BME280;50692;53.314;-6.300;2023-04-08T06:25:46;101832.09;;;9.09;84.50
64368;BME280;50692;53.314;-6.300;2023-04-08T06:28:32;101841.63;;;9.15;84.38
64368;BME280;50692;53.314;-6.300;2023-04-08T06:31:17;101838.91;;;9.18;84.55
64368;BME280;50692;53.314;-6.300;2023-04-08T06:34:05;101818.81;;;9.13;84.60
64368;BME280;50692;53.314;-6.300;2023-04-08T06:36:50;101843.09;;;9.25;84.63
64368;BME280;50692;53.314;-6.300;2023-04-08T06:39:36;101848.31;;;9.26;84.85
64368;BME280;50692;53.314;-6.300;2023-04-08T06:42:22;101842.13;;;9.27;85.10
64368;BME280;50692;53.314;-6.300;2023-04-08T06:45:08;101856.06;;;9.32;84.95
64368;BME280;50692;53.314;-6.300;2023-04-08T06:47:54;101855.09;;;9.35;84.75
64368;BME280;50692;53.314;-6.300;2023-04-08T06:50:41;101848.94;;;9.34;84.39
64368;BME280;50692;53.314;-6.300;2023-04-08T06:53:27;101866.22;;;9.45;84.00
64368;BME280;50692;53.314;-6.300;2023-04-08T06:56:17;101856.41;;;9.50;83.23
64368;BME280;50692;53.314;-6.300;2023-04-08T06:59:03;101864.13;;;9.56;82.40
64368;BME280;50692;53.314;-6.300;2023-04-08T07:01:51;101861.38;;;9.60;81.41
64368;BME280;50692;53.314;-6.300;2023-04-08T07:04:37;101857.56;;;9.69;80.90
64368;BME280;50692;53.314;-6.300;2023-04-08T07:07:23;101860.13;;;9.72;80.30
64368;BME280;50692;53.314;-6.300;2023-04-08T07:10:09;101866.00;;;9.82;79.54
64368;BME280;50692;53.314;-6.300;2023-04-08T07:12:55;101864.88;;;9.89;79.20
64368;BME280;50692;53.314;-6.300;2023-04-08T07:15:41;101867.44;;;9.92;78.41
64368;BME280;50692;53.314;-6.300;2023-04-08T07:18:27;101866.31;;;9.99;78.06
64368;BME280;50692;53.314;-6.300;2023-04-08T07:21:13;101868.56;;;10.12;77.56
64368;BME280;50692;53.314;-6.300;2023-04-08T07:23:59;101871.63;;;10.26;77.21
64368;BME280;50692;53.314;-6.300;2023-04-08T07:26:46;101867.69;;;10.39;76.70
64368;BME280;50692;53.314;-6.300;2023-04-08T07:29:32;101873.34;;;10.53;76.38
64368;BME280;50692;53.314;-6.300;2023-04-08T07:32:18;101873.13;;;10.60;76.54
64368;BME280;50692;53.314;-6.300;2023-04-08T07:35:04;101873.75;;;10.68;76.50
64368;BME280;50692;53.314;-6.300;2023-04-08T07:37:51;101861.47;;;10.65;76.65
64368;BME280;50692;53.314;-6.300;2023-04-08T07:40:41;101879.63;;;10.76;77.19
64368;BME280;50692;53.314;-6.300;2023-04-08T07:43:30;101890.84;;;10.83;77.67
64368;BME280;50692;53.314;-6.300;2023-04-08T07:46:18;101891.38;;;10.92;77.83
64368;BME280;50692;53.314;-6.300;2023-04-08T07:49:06;101883.44;;;10.92;77.99
64368;BME280;50692;53.314;-6.300;2023-04-08T07:52:00;101893.59;;;11.04;77.89
64368;BME280;50692;53.314;-6.300;2023-04-08T07:54:53;101902.22;;;11.10;77.49
64368;BME280;50692;53.314;-6.300;2023-04-08T07:57:40;101884.69;;;11.07;76.59
64368;BME280;50692;53.314;-6.300;2023-04-08T08:00:26;101902.56;;;11.24;76.06
64368;BME280;50692;53.314;-6.300;2023-04-08T08:03:14;101894.31;;;11.33;75.54
64368;BME280;50692;53.314;-6.300;2023-04-08T08:06:00;101890.09;;;11.51;75.37
64368;BME280;50692;53.314;-6.300;2023-04-08T08:08:48;101903.03;;;11.82;74.64
64368;BME280;50692;53.314;-6.300;2023-04-08T08:11:33;101876.19;;;11.91;73.31
64368;BME280;50692;53.314;-6.300;2023-04-08T08:14:19;101896.81;;;12.27;70.05
64368;BME280;50692;53.314;-6.300;2023-04-08T08:17:07;101900.16;;;12.32;68.07
64368;BME280;50692;53.314;-6.300;2023-04-08T08:19:54;101911.78;;;12.50;65.45
64368;BME280;50692;53.314;-6.300;2023-04-08T08:22:40;101881.81;;;12.48;64.45
64368;BME280;50692;53.314;-6.300;2023-04-08T08:25:26;101907.53;;;12.66;64.50
64368;BME280;50692;53.314;-6.300;2023-04-08T08:28:12;101919.63;;;12.73;63.86
64368;BME280;50692;53.314;-6.300;2023-04-08T08:30:58;101895.94;;;12.48;62.87
64368;BME280;50692;53.314;-6.300;2023-04-08T08:33:45;101909.59;;;12.60;63.04
64368;BME280;50692;53.314;-6.300;2023-04-08T08:36:31;101899.25;;;12.74;63.18
64368;BME280;50692;53.314;-6.300;2023-04-08T08:39:17;101881.66;;;12.92;62.69
64368;BME280;50692;53.314;-6.300;2023-04-08T08:42:03;101904.25;;;13.21;61.57
64368;BME280;50692;53.314;-6.300;2023-04-08T08:44:49;101907.53;;;13.47;60.68
64368;BME280;50692;53.314;-6.300;2023-04-08T08:47:35;101892.00;;;13.58;60.07
64368;BME280;50692;53.314;-6.300;2023-04-08T08:50:21;101897.31;;;13.77;59.57
64368;BME280;50692;53.314;-6.300;2023-04-08T08:53:12;101858.31;;;13.58;58.15
64368;BME280;50692;53.314;-6.300;2023-04-08T08:56:01;101902.34;;;14.00;57.52
64368;BME280;50692;53.314;-6.300;2023-04-08T08:58:47;101881.66;;;14.07;56.69
64368;BME280;50692;53.314;-6.300;2023-04-08T09:01:35;101899.91;;;14.32;56.12
64368;BME280;50692;53.314;-6.300;2023-04-08T09:04:23;101870.28;;;14.22;56.00
64368;BME280;50692;53.314;-6.300;2023-04-08T09:07:15;101884.72;;;14.53;54.61
64368;BME280;50692;53.314;-6.300;2023-04-08T09:10:01;101885.00;;;14.81;54.19
64368;BME280;50692;53.314;-6.300;2023-04-08T09:12:54;101898.22;;;15.00;51.83
64368;BME280;50692;53.314;-6.300;2023-04-08T09:16:04;101875.75;;;14.88;49.99
64368;BME280;50692;53.314;-6.300;2023-04-08T09:18:50;101893.97;;;15.14;50.40
64368;BME280;50692;53.314;-6.300;2023-04-08T09:21:37;101873.31;;;15.01;51.21
64368;BME280;50692;53.314;-6.300;2023-04-08T09:24:28;101880.00;;;14.75;50.02
64368;BME280;50692;53.314;-6.300;2023-04-08T09:27:32;101898.25;;;14.66;51.30
64368;BME280;50692;53.314;-6.300;2023-04-08T09:30:22;101895.50;;;14.50;52.43
64368;BME280;50692;53.314;-6.300;2023-04-08T09:33:08;101892.09;;;14.46;52.96
64368;BME280;50692;53.314;-6.300;2023-04-08T09:35:54;101909.56;;;14.34;51.88
64368;BME280;50692;53.314;-6.300;2023-04-08T09:38:43;101866.50;;;14.09;50.87
64368;BME280;50692;53.314;-6.300;2023-04-08T09:41:34;101880.13;;;14.20;51.68
64368;BME280;50692;53.314;-6.300;2023-04-08T09:44:20;101890.47;;;14.26;52.47
64368;BME280;50692;53.314;-6.300;2023-04-08T09:47:18;101890.13;;;14.15;52.22
64368;BME280;50692;53.314;-6.300;2023-04-08T09:50:08;101891.56;;;14.22;50.88
64368;BME280;50692;53.314;-6.300;2023-04-08T09:53:08;101885.66;;;14.52;50.38
64368;BME280;50692;53.314;-6.300;2023-04-08T09:55:57;101859.34;;;14.80;50.07
64368;BME280;50692;53.314;-6.300;2023-04-08T09:58:51;101885.28;;;15.59;49.64
64368;BME280;50692;53.314;-6.300;2023-04-08T10:01:46;101864.34;;;15.85;47.87
64368;BME280;50692;53.314;-6.300;2023-04-08T10:04:35;101882.19;;;16.14;47.80
64368;BME280;50692;53.314;-6.300;2023-04-08T10:07:23;101881.13;;;16.63;47.24
64368;BME280;50692;53.314;-6.300;2023-04-08T10:10:09;101871.19;;;17.09;44.83
64368;BME280;50692;53.314;-6.300;2023-04-08T10:12:58;101900.16;;;17.44;43.06
64368;BME280;50692;53.314;-6.300;2023-04-08T10:15:44;101884.88;;;17.74;41.48
64368;BME280;50692;53.314;-6.300;2023-04-08T10:18:32;101874.81;;;18.19;40.83
64368;BME280;50692;53.314;-6.300;2023-04-08T10:21:33;101886.53;;;18.44;39.74
64368;BME280;50692;53.314;-6.300;2023-04-08T10:24:19;101871.50;;;18.29;37.10
64368;BME280;50692;53.314;-6.300;2023-04-08T10:27:38;101872.22;;;18.58;37.51
64368;BME280;50692;53.314;-6.300;2023-04-08T10:33:22;101885.00;;;18.80;38.74
64368;BME280;50692;53.314;-6.300;2023-04-08T10:36:10;101874.75;;;18.74;37.75
64368;BME280;50692;53.314;-6.300;2023-04-08T10:38:56;101870.44;;;18.71;39.14
64368;BME280;50692;53.314;-6.300;2023-04-08T10:41:50;101870.66;;;19.19;38.78
64368;BME280;50692;53.314;-6.300;2023-04-08T10:44:36;101861.16;;;19.64;37.46
64368;BME280;50692;53.314;-6.300;2023-04-08T10:47:25;101866.75;;;19.49;36.90
64368;BME280;50692;53.314;-6.300;2023-04-08T10:50:14;101856.75;;;19.63;36.78
64368;BME280;50692;53.314;-6.300;2023-04-08T10:53:02;101866.22;;;19.80;37.41
64368;BME280;50692;53.314;-6.300;2023-04-08T10:55:48;101870.81;;;19.91;37.24
64368;BME280;50692;53.314;-6.300;2023-04-08T10:58:34;101853.88;;;19.67;36.15
64368;BME280;50692;53.314;-6.300;2023-04-08T11:01:23;101860.00;;;19.43;35.82
64368;BME280;50692;53.314;-6.300;2023-04-08T11:04:13;101854.91;;;19.14;35.41
64368;BME280;50692;53.314;-6.300;2023-04-08T11:07:04;101863.50;;;19.07;35.66
64368;BME280;50692;53.314;-6.300;2023-04-08T11:09:50;101849.56;;;18.89;36.36
64368;BME280;50692;53.314;-6.300;2023-04-08T11:12:36;101866.81;;;18.85;36.17
64368;BME280;50692;53.314;-6.300;2023-04-08T11:15:23;101843.00;;;18.80;36.14
64368;BME280;50692;53.314;-6.300;2023-04-08T11:18:10;101857.19;;;18.95;36.60
64368;BME280;50692;53.314;-6.300;2023-04-08T11:20:56;101846.84;;;19.14;36.83
64368;BME280;50692;53.314;-6.300;2023-04-08T11:23:42;101876.84;;;19.32;36.47
64368;BME280;50692;53.314;-6.300;2023-04-08T11:26:28;101848.19;;;19.46;36.06
64368;BME280;50692;53.314;-6.300;2023-04-08T11:29:15;101840.31;;;19.55;35.98
64368;BME280;50692;53.314;-6.300;2023-04-08T11:32:01;101856.25;;;19.33;35.17
64368;BME280;50692;53.314;-6.300;2023-04-08T11:34:47;101848.91;;;19.24;35.78
64368;BME280;50692;53.314;-6.300;2023-04-08T11:37:40;101848.38;;;18.93;36.00
64368;BME280;50692;53.314;-6.300;2023-04-08T11:40:26;101857.44;;;18.65;36.37
64368;BME280;50692;53.314;-6.300;2023-04-08T11:43:12;101850.63;;;18.74;37.14
64368;BME280;50692;53.314;-6.300;2023-04-08T11:46:10;101824.44;;;18.64;37.60
64368;BME280;50692;53.314;-6.300;2023-04-08T11:48:58;101837.72;;;18.53;36.79
64368;BME280;50692;53.314;-6.300;2023-04-08T11:51:56;101845.00;;;18.51;37.53
64368;BME280;50692;53.314;-6.300;2023-04-08T11:54:42;101843.97;;;18.66;37.28
64368;BME280;50692;53.314;-6.300;2023-04-08T11:57:28;101848.72;;;18.88;36.90
64368;BME280;50692;53.314;-6.300;2023-04-08T12:00:14;101792.88;;;18.82;36.64
64368;BME280;50692;53.314;-6.300;2023-04-08T12:03:00;101828.03;;;19.40;36.69
64368;BME280;50692;53.314;-6.300;2023-04-08T12:05:47;101829.31;;;19.47;37.51
64368;BME280;50692;53.314;-6.300;2023-04-08T12:08:33;101812.06;;;19.38;37.46
64368;BME280;50692;53.314;-6.300;2023-04-08T12:11:19;101842.63;;;19.85;36.79
64368;BME280;50692;53.314;-6.300;2023-04-08T12:14:05;101849.00;;;19.59;36.65
64368;BME280;50692;53.314;-6.300;2023-04-08T12:16:51;101849.31;;;19.17;37.06
64368;BME280;50692;53.314;-6.300;2023-04-08T12:19:37;101849.41;;;19.16;38.11
64368;BME280;50692;53.314;-6.300;2023-04-08T12:22:23;101827.38;;;19.00;38.34
64368;BME280;50692;53.314;-6.300;2023-04-08T12:25:09;101841.19;;;19.06;38.68
64368;BME280;50692;53.314;-6.300;2023-04-08T12:27:55;101832.06;;;18.70;38.76
64368;BME280;50692;53.314;-6.300;2023-04-08T12:30:42;101805.03;;;19.25;37.87
64368;BME280;50692;53.314;-6.300;2023-04-08T12:33:28;101832.81;;;19.24;38.61
64368;BME280;50692;53.314;-6.300;2023-04-08T12:36:17;101839.34;;;19.20;38.79
64368;BME280;50692;53.314;-6.300;2023-04-08T12:39:02;101813.13;;;18.74;39.76
64368;BME280;50692;53.314;-6.300;2023-04-08T12:41:48;101812.66;;;18.54;40.17
64368;BME280;50692;53.314;-6.300;2023-04-08T12:44:34;101852.41;;;18.60;41.36
64368;BME280;50692;53.314;-6.300;2023-04-08T12:47:20;101803.63;;;18.17;41.37
64368;BME280;50692;53.314;-6.300;2023-04-08T12:50:06;101847.41;;;18.16;42.34
64368;BME280;50692;53.314;-6.300;2023-04-08T12:52:54;101836.84;;;18.00;43.57
64368;BME280;50692;53.314;-6.300;2023-04-08T12:55:40;101844.66;;;17.76;44.89
64368;BME280;50692;53.314;-6.300;2023-04-08T12:58:26;101837.44;;;17.64;44.69
64368;BME280;50692;53.314;-6.300;2023-04-08T13:01:12;101841.91;;;17.63;44.59
64368;BME280;50692;53.314;-6.300;2023-04-08T13:03:58;101777.28;;;17.15;45.46
64368;BME280;50692;53.314;-6.300;2023-04-08T13:06:44;101829.44;;;17.49;46.19
64368;BME280;50692;53.314;-6.300;2023-04-08T13:09:30;101837.69;;;17.88;45.43
64368;BME280;50692;53.314;-6.300;2023-04-08T13:12:16;101840.09;;;18.05;45.16
64368;BME280;50692;53.314;-6.300;2023-04-08T13:15:02;101831.16;;;18.44;44.00
64368;BME280;50692;53.314;-6.300;2023-04-08T13:17:48;101827.09;;;18.52;41.90
64368;BME280;50692;53.314;-6.300;2023-04-08T13:20:34;101808.25;;;18.40;41.79
64368;BME280;50692;53.314;-6.300;2023-04-08T13:23:21;101826.41;;;18.10;42.78
64368;BME280;50692;53.314;-6.300;2023-04-08T13:26:07;101836.13;;;17.98;43.85
64368;BME280;50692;53.314;-6.300;2023-04-08T13:28:53;101784.31;;;17.45;43.96
64368;BME280;50692;53.314;-6.300;2023-04-08T13:31:39;101828.59;;;17.49;44.32
64368;BME280;50692;53.314;-6.300;2023-04-08T13:34:25;101818.22;;;17.30;44.91
64368;BME280;50692;53.314;-6.300;2023-04-08T13:37:11;101834.78;;;17.49;45.39
64368;BME280;50692;53.314;-6.300;2023-04-08T13:39:56;101838.00;;;17.55;44.95
64368;BME280;50692;53.314;-6.300;2023-04-08T13:42:42;101832.22;;;17.75;44.97
64368;BME280;50692;53.314;-6.300;2023-04-08T13:45:28;101834.97;;;18.15;44.26
64368;BME280;50692;53.314;-6.300;2023-04-08T13:48:14;101766.91;;;18.19;43.24
64368;BME280;50692;53.314;-6.300;2023-04-08T13:51:00;101822.75;;;18.76;42.76
64368;BME280;50692;53.314;-6.300;2023-04-08T13:53:45;101813.66;;;18.91;42.91
64368;BME280;50692;53.314;-6.300;2023-04-08T13:56:31;101809.25;;;19.03;42.74
64368;BME280;50692;53.314;-6.300;2023-04-08T13:59:17;101817.06;;;19.06;42.73
64368;BME280;50692;53.314;-6.300;2023-04-08T14:02:03;101827.66;;;18.69;43.68
64368;BME280;50692;53.314;-6.300;2023-04-08T14:04:49;101816.16;;;18.29;44.31
64368;BME280;50692;53.314;-6.300;2023-04-08T14:07:35;101815.06;;;17.79;45.87
64368;BME280;50692;53.314;-6.300;2023-04-08T14:10:20;101827.03;;;17.59;46.65
64368;BME280;50692;53.314;-6.300;2023-04-08T14:13:06;101818.50;;;17.25;47.57
64368;BME280;50692;53.314;-6.300;2023-04-08T14:15:52;101821.16;;;17.40;47.44
64368;BME280;50692;53.314;-6.300;2023-04-08T14:18:39;101828.31;;;17.39;47.46
64368;BME280;50692;53.314;-6.300;2023-04-08T14:21:25;101815.09;;;17.09;48.71
64368;BME280;50692;53.314;-6.300;2023-04-08T14:24:11;101799.59;;;16.57;49.49
64368;BME280;50692;53.314;-6.300;2023-04-08T14:26:58;101823.22;;;16.49;50.42
64368;BME280;50692;53.314;-6.300;2023-04-08T14:29:44;101826.00;;;16.17;50.98
64368;BME280;50692;53.314;-6.300;2023-04-08T14:32:30;101825.44;;;15.96;51.96
64368;BME280;50692;53.314;-6.300;2023-04-08T14:35:17;101828.19;;;15.95;52.11